createdAt,value
2022-09-16T00:01:20.254Z,20.35
2022-09-16T00:03:48.580Z,20.18
2022-09-16T00:06:27.780Z,20.20
2022-09-16T00:08:57.051Z,20.01
2022-09-16T00:11:24.749Z,20.07
2022-09-16T00:13:52.616Z,20.33
2022-09-16T00:16:25.990Z,19.59
2022-09-16T00:18:55.495Z,20.11
2022-09-16T00:21:24.238Z,19.93
2022-09-16T00:23:51.765Z,20.30
2022-09-16T00:26:19.756Z,20.16
2022-09-16T00:28:50.997Z,20.37
2022-09-16T00:31:21.227Z,20.00
2022-09-16T00:33:49.833Z,19.54
2022-09-16T00:36:19.613Z,19.90
2022-09-16T00:38:51.274Z,19.89
2022-09-16T00:41:33.451Z,19.87
2022-09-16T00:44:06.127Z,19.80
2022-09-16T00:46:40.143Z,19.21
2022-09-16T00:49:13.255Z,19.54
2022-09-16T00:51:42.242Z,19.15
2022-09-16T00:54:10.182Z,19.17
2022-09-16T00:56:39.465Z,19.48
2022-09-16T00:59:28.702Z,19.32
2022-09-16T01:02:00.916Z,19.41
2022-09-16T01:04:39.513Z,19.38
2022-09-16T01:07:06.951Z,19.41
2022-09-16T01:09:34.840Z,18.67
2022-09-16T01:12:05.467Z,19.32
2022-09-16T01:14:51.545Z,19.22
2022-09-16T01:17:34.726Z,19.20
2022-09-16T01:20:39.896Z,19.33
2022-09-16T01:23:26.201Z,19.54
2022-09-16T01:26:12.658Z,19.38
2022-09-16T01:28:49.499Z,19.34
2022-09-16T01:31:39.106Z,19.15
2022-09-16T01:34:45.556Z,18.72
2022-09-16T01:37:22.205Z,18.91
2022-09-16T01:40:04.675Z,19.14
2022-09-16T01:42:39.077Z,19.00
2022-09-16T01:45:16.680Z,18.98
2022-09-16T01:47:54.711Z,18.70
2022-09-16T01:50:33.219Z,19.04
2022-09-16T01:53:03.862Z,19.24
2022-09-16T01:55:53.875Z,18.91
2022-09-16T01:58:36.967Z,19.06
2022-09-16T02:01:10.272Z,19.14
2022-09-16T02:03:41.186Z,19.60
2022-09-16T02:06:12.574Z,19.42
2022-09-16T02:08:44.967Z,19.45
2022-09-16T02:11:16.788Z,19.31
2022-09-16T02:14:00.638Z,19.22
2022-09-16T02:16:35.315Z,19.29
2022-09-16T02:19:06.786Z,19.38
2022-09-16T02:21:36.563Z,18.83
2022-09-16T02:24:08.231Z,19.28
2022-09-16T02:26:45.056Z,19.23
2022-09-16T02:29:17.581Z,19.47
2022-09-16T02:31:46.287Z,19.45
2022-09-16T02:34:22.542Z,19.34
2022-09-16T02:36:56.056Z,19.47
2022-09-16T02:39:29.493Z,19.40
2022-09-16T02:41:57.498Z,19.55
2022-09-16T02:44:25.776Z,19.69
2022-09-16T02:47:22.358Z,19.40
2022-09-16T02:49:55.909Z,19.53
2022-09-16T02:52:46.781Z,19.17
2022-09-16T02:55:14.719Z,18.69
2022-09-16T02:57:42.396Z,18.77
2022-09-16T03:00:10.388Z,19.32
2022-09-16T03:02:38.385Z,18.63
2022-09-16T03:05:06.725Z,19.11
2022-09-16T03:07:41.953Z,19.20
2022-09-16T03:10:15.578Z,19.29
2022-09-16T03:12:56.569Z,19.32
2022-09-16T03:15:43.847Z,19.33
2022-09-16T03:18:49.927Z,19.51
2022-09-16T03:21:33.804Z,19.12
2022-09-16T03:24:04.620Z,19.03
2022-09-16T03:26:41.973Z,19.10
2022-09-16T03:29:30.047Z,19.11
2022-09-16T03:32:17.719Z,19.20
2022-09-16T03:35:00.487Z,19.10
2022-09-16T03:37:34.831Z,19.25
2022-09-16T03:40:09.297Z,19.10
2022-09-16T03:42:43.154Z,18.94
2022-09-16T03:45:17.319Z,18.71
2022-09-16T03:47:46.667Z,19.02
2022-09-16T03:50:20.690Z,18.97
2022-09-16T03:52:50.524Z,19.15
2022-09-16T03:55:19.327Z,18.99
2022-09-16T03:57:47.635Z,19.36
2022-09-16T04:00:16.507Z,19.21
2022-09-16T04:02:48.166Z,19.32
2022-09-16T04:05:17.091Z,18.79
2022-09-16T04:07:48.983Z,18.94
2022-09-16T04:10:18.195Z,18.64
2022-09-16T04:12:47.224Z,18.97
2022-09-16T04:15:18.817Z,19.04
2022-09-16T04:17:56.835Z,19.15
2022-09-16T04:20:28.416Z,19.24
2022-09-16T04:22:56.865Z,18.92
2022-09-16T04:25:24.678Z,19.29
2022-09-16T04:27:53.277Z,19.23
2022-09-16T04:30:21.937Z,19.14
2022-09-16T04:32:54.582Z,19.13
2022-09-16T04:35:23.698Z,19.16
2022-09-16T04:37:55.559Z,19.11
2022-09-16T04:40:23.857Z,19.19
2022-09-16T04:42:53.133Z,19.14
2022-09-16T04:45:22.349Z,18.55
2022-09-16T04:47:58.057Z,18.89
2022-09-16T04:50:33.818Z,18.84
2022-09-16T04:53:02.809Z,18.86
2022-09-16T04:55:32.845Z,18.90
2022-09-16T04:58:06.214Z,18.00
2022-09-16T05:00:35.346Z,18.76
2022-09-16T05:03:05.488Z,18.89
2022-09-16T05:05:36.978Z,18.98
2022-09-16T05:08:07.012Z,19.00
2022-09-16T05:10:48.783Z,18.29
2022-09-16T05:13:19.807Z,18.33
2022-09-16T05:15:51.213Z,18.16
2022-09-16T05:18:20.002Z,18.45
2022-09-16T05:21:00.207Z,18.16
2022-09-16T05:23:29.199Z,18.17
2022-09-16T05:26:08.118Z,18.83
2022-09-16T05:28:36.574Z,18.27
2022-09-16T05:31:16.217Z,18.68
2022-09-16T05:34:05.407Z,18.52
2022-09-16T05:36:36.439Z,18.80
2022-09-16T05:39:22.259Z,18.24
2022-09-16T05:41:54.893Z,18.80
2022-09-16T05:44:22.834Z,18.88
2022-09-16T05:46:52.430Z,18.06
2022-09-16T05:49:21.926Z,18.50
2022-09-16T05:52:07.417Z,18.00
2022-09-16T05:54:39.102Z,17.77
2022-09-16T05:57:07.748Z,17.73
2022-09-16T05:59:35.703Z,18.42
2022-09-16T06:02:04.472Z,17.87
2022-09-16T06:04:50.478Z,17.92
2022-09-16T06:07:18.586Z,18.37
2022-09-16T06:09:47.384Z,17.71
2022-09-16T06:12:15.573Z,18.14
2022-09-16T06:14:43.539Z,18.41
2022-09-16T06:17:11.874Z,18.68
2022-09-16T06:19:41.901Z,18.63
2022-09-16T06:22:13.580Z,18.85
2022-09-16T06:24:42.768Z,18.66
2022-09-16T06:27:13.172Z,18.23
2022-09-16T06:29:41.524Z,18.28
2022-09-16T06:32:09.664Z,18.07
2022-09-16T06:34:37.552Z,17.85
2022-09-16T06:37:06.787Z,17.88
2022-09-16T06:39:43.309Z,18.65
2022-09-16T06:42:12.544Z,18.44
2022-09-16T06:44:41.905Z,18.30
2022-09-16T06:47:10.159Z,18.20
2022-09-16T06:49:38.692Z,17.41
2022-09-16T06:52:06.679Z,17.84
2022-09-16T06:54:36.531Z,18.45
2022-09-16T06:57:06.574Z,18.70
2022-09-16T06:59:41.489Z,18.73
2022-09-16T07:02:11.127Z,18.88
2022-09-16T07:04:41.766Z,19.16
2022-09-16T07:07:10.549Z,19.41
2022-09-16T07:09:43.384Z,19.39
2022-09-16T07:12:19.858Z,19.58
2022-09-16T07:14:48.447Z,19.58
2022-09-16T07:17:32.634Z,19.39
2022-09-16T07:20:02.281Z,18.87
2022-09-16T07:22:38.348Z,19.37
2022-09-16T07:25:14.376Z,19.11
2022-09-16T07:27:44.073Z,19.64
2022-09-16T07:30:18.162Z,19.45
2022-09-16T07:32:51.731Z,19.40
2022-09-16T07:35:28.459Z,19.63
2022-09-16T07:38:01.963Z,19.86
2022-09-16T07:40:31.605Z,19.62
2022-09-16T07:43:07.032Z,19.60
2022-09-16T07:45:36.353Z,19.60
2022-09-16T07:48:11.159Z,19.70
2022-09-16T07:50:53.848Z,19.35
2022-09-16T07:53:29.584Z,19.31
2022-09-16T07:56:23.300Z,19.44
2022-09-16T07:58:54.755Z,19.02
2022-09-16T08:01:27.934Z,19.43
2022-09-16T08:03:57.353Z,19.71
2022-09-16T08:06:32.679Z,19.51
2022-09-16T08:09:27.278Z,19.63
2022-09-16T08:12:00.167Z,19.77
2022-09-16T08:14:28.563Z,19.87
2022-09-16T08:17:08.444Z,20.14
2022-09-16T08:19:42.331Z,19.92
2022-09-16T08:22:12.280Z,19.56
2022-09-16T08:25:00.624Z,19.51
2022-09-16T08:27:38.576Z,19.62
2022-09-16T08:30:12.215Z,19.48
2022-09-16T08:32:41.822Z,19.24
2022-09-16T08:35:18.290Z,19.69
2022-09-16T08:37:50.128Z,19.55
2022-09-16T08:43:10.999Z,19.85
2022-09-16T08:46:10.511Z,19.57
2022-09-16T08:49:04.051Z,19.35
2022-09-16T08:51:43.901Z,19.50
2022-09-16T08:54:26.031Z,19.69
2022-09-16T08:57:05.678Z,19.60
2022-09-16T08:59:37.859Z,19.59
2022-09-16T09:02:26.339Z,19.58
2022-09-16T09:04:57.200Z,19.68
2022-09-16T09:07:56.621Z,19.79
2022-09-16T09:10:32.084Z,19.65
2022-09-16T09:13:46.728Z,19.34
2022-09-16T09:16:20.714Z,19.28
2022-09-16T09:18:58.899Z,19.18
2022-09-16T09:21:45.938Z,18.99
2022-09-16T09:24:42.610Z,18.84
2022-09-16T09:27:31.477Z,19.11
2022-09-16T09:30:24.137Z,19.17
2022-09-16T09:33:44.484Z,19.23
2022-09-16T09:36:19.107Z,19.45
2022-09-16T09:39:16.998Z,19.11
2022-09-16T09:42:03.728Z,19.18
2022-09-16T09:45:01.493Z,19.58
2022-09-16T09:47:43.089Z,19.69
2022-09-16T09:50:19.472Z,19.75
2022-09-16T09:52:55.078Z,19.67
2022-09-16T09:55:25.986Z,19.68
2022-09-16T09:58:35.272Z,20.08
2022-09-16T10:01:04.353Z,20.02
2022-09-16T10:03:34.018Z,20.18
2022-09-16T10:06:03.319Z,20.43
2022-09-16T10:08:38.601Z,20.20
2022-09-16T10:11:22.800Z,20.39
2022-09-16T10:13:58.176Z,20.80
2022-09-16T10:16:31.865Z,20.51
2022-09-16T10:19:21.470Z,20.58
2022-09-16T10:22:12.347Z,20.45
2022-09-16T10:24:55.102Z,20.56
2022-09-16T10:27:39.026Z,20.58
2022-09-16T10:30:15.746Z,20.03
2022-09-16T10:32:58.680Z,19.72
2022-09-16T10:35:33.808Z,20.37
2022-09-16T10:38:10.809Z,19.72
2022-09-16T10:44:26.016Z,20.09
2022-09-16T10:53:45.838Z,19.80
2022-09-16T10:56:26.542Z,19.78
2022-09-16T10:59:07.697Z,20.04
2022-09-16T11:01:46.148Z,19.79
2022-09-16T11:04:42.234Z,20.13
2022-09-16T11:07:41.923Z,20.48
2022-09-16T11:10:39.437Z,20.24
2022-09-16T11:13:18.922Z,19.97
2022-09-16T11:16:11.038Z,20.32
2022-09-16T11:19:09.363Z,20.01
2022-09-16T11:22:15.544Z,19.50
2022-09-16T11:25:17.167Z,19.79
2022-09-16T11:28:14.723Z,19.60
2022-09-16T11:30:57.055Z,20.32
2022-09-16T11:34:05.242Z,20.40
2022-09-16T11:36:46.931Z,20.98
2022-09-16T11:39:39.672Z,20.53
2022-09-16T11:42:25.291Z,20.82
2022-09-16T11:45:02.486Z,21.09
2022-09-16T11:48:08.528Z,21.13
2022-09-16T11:51:17.288Z,21.02
2022-09-16T11:54:01.918Z,20.89
2022-09-16T11:56:50.136Z,20.87
2022-09-16T11:59:41.618Z,20.72
2022-09-16T12:02:24.067Z,21.36
2022-09-16T12:05:27.789Z,21.58
2022-09-16T12:08:23.211Z,21.72
2022-09-16T12:11:16.150Z,21.73
2022-09-16T12:13:53.886Z,21.24
2022-09-16T12:16:52.473Z,21.45
2022-09-16T12:20:14.167Z,21.36
2022-09-16T12:23:11.439Z,21.18
2022-09-16T12:26:11.908Z,20.28
2022-09-16T12:28:47.154Z,20.58
2022-09-16T12:31:47.918Z,20.81
2022-09-16T12:34:30.226Z,21.27
2022-09-16T12:37:47.808Z,20.76
2022-09-16T12:40:20.654Z,21.34
2022-09-16T12:43:22.757Z,20.94
2022-09-16T12:46:29.336Z,20.42
2022-09-16T12:49:00.358Z,20.90
2022-09-16T12:51:50.639Z,20.62
2022-09-16T12:55:04.018Z,20.41
2022-09-16T12:58:36.481Z,20.88
2022-09-16T13:01:34.916Z,20.68
2022-09-16T13:04:15.532Z,20.89
2022-09-16T13:07:06.236Z,20.55
2022-09-16T13:09:46.969Z,20.27
2022-09-16T13:15:25.192Z,21.36
2022-09-16T13:17:57.486Z,21.57
2022-09-16T13:20:34.199Z,21.52
2022-09-16T13:23:21.104Z,21.07
2022-09-16T13:25:59.417Z,20.46
2022-09-16T13:28:36.888Z,20.22
2022-09-16T13:31:34.351Z,20.91
2022-09-16T13:34:16.726Z,20.65
2022-09-16T13:36:52.214Z,20.50
2022-09-16T13:39:35.533Z,20.95
2022-09-16T13:42:19.038Z,20.30
2022-09-16T13:44:47.493Z,20.70
2022-09-16T13:47:40.679Z,21.13
2022-09-16T13:50:32.139Z,21.43
2022-09-16T13:53:36.333Z,21.42
2022-09-16T13:56:38.048Z,21.35
2022-09-16T13:59:49.347Z,21.46
2022-09-16T14:03:03.508Z,21.91
2022-09-16T14:05:59.909Z,20.54
2022-09-16T14:08:51.891Z,21.01
2022-09-16T14:11:59.456Z,19.91
2022-09-16T14:14:50.106Z,20.82
2022-09-16T14:17:28.027Z,21.42
2022-09-16T14:20:04.537Z,20.75
2022-09-16T14:22:38.607Z,20.92
2022-09-16T14:25:45.719Z,21.12
2022-09-16T14:28:25.107Z,21.13
2022-09-16T14:31:06.071Z,21.19
2022-09-16T14:33:47.356Z,21.03
2022-09-16T14:36:35.002Z,21.25
2022-09-16T14:39:29.542Z,20.22
2022-09-16T14:42:03.743Z,19.89
2022-09-16T14:44:54.697Z,20.32
2022-09-16T14:47:51.677Z,20.63
2022-09-16T14:50:35.800Z,20.80
2022-09-16T14:53:22.397Z,20.47
2022-09-16T14:58:30.308Z,20.70
2022-09-16T15:01:31.964Z,20.60
2022-09-16T15:04:19.930Z,20.60
2022-09-16T15:07:12.570Z,20.91
2022-09-16T15:10:05.653Z,20.61
2022-09-16T15:13:10.762Z,20.07
2022-09-16T15:15:52.701Z,20.65
2022-09-16T15:18:37.770Z,20.13
2022-09-16T15:21:32.174Z,20.23
2022-09-16T15:24:39.351Z,20.66
2022-09-16T15:27:30.386Z,20.72
2022-09-16T15:30:32.877Z,20.68
2022-09-16T15:33:31.190Z,20.61
2022-09-16T15:36:04.827Z,20.72
2022-09-16T15:38:44.185Z,20.41
2022-09-16T15:41:16.817Z,20.41
2022-09-16T15:43:46.867Z,20.49
2022-09-16T15:46:22.426Z,20.61
2022-09-16T15:49:02.317Z,20.13
2022-09-16T15:51:44.839Z,20.16
2022-09-16T15:57:49.200Z,20.32
2022-09-16T16:00:54.486Z,20.31
2022-09-16T16:03:31.941Z,19.99
2022-09-16T16:06:00.723Z,20.37
2022-09-16T16:08:40.778Z,20.11
2022-09-16T16:11:20.383Z,20.25
2022-09-16T16:13:53.313Z,20.40
2022-09-16T16:16:29.122Z,20.59
2022-09-16T16:18:59.784Z,20.36
2022-09-16T16:21:31.586Z,20.47
2022-09-16T16:24:02.631Z,20.48
2022-09-16T16:26:41.699Z,20.60
2022-09-16T16:29:11.156Z,20.73
2022-09-16T16:31:41.364Z,20.50
2022-09-16T16:34:09.632Z,20.57
2022-09-16T16:36:39.954Z,20.27
2022-09-16T16:39:13.553Z,20.24
2022-09-16T16:41:44.383Z,20.07
2022-09-16T16:44:18.341Z,20.18
2022-09-16T16:47:15.416Z,20.21
2022-09-16T16:49:48.375Z,19.92
2022-09-16T16:52:19.829Z,20.16
2022-09-16T16:54:52.394Z,20.19
2022-09-16T16:57:22.859Z,20.30
2022-09-16T16:59:56.952Z,19.88
2022-09-16T17:02:26.561Z,18.74
2022-09-16T17:05:00.484Z,18.66
2022-09-16T17:07:30.031Z,19.10
2022-09-16T17:10:04.261Z,18.95
2022-09-16T17:12:33.083Z,19.02
2022-09-16T17:15:01.611Z,18.96
2022-09-16T17:17:31.783Z,19.30
2022-09-16T17:20:00.990Z,19.54
2022-09-16T17:22:29.325Z,19.35
2022-09-16T17:24:57.474Z,19.48
2022-09-16T17:27:27.972Z,19.70
2022-09-16T17:29:56.818Z,19.45
2022-09-16T17:32:25.571Z,18.07
2022-09-16T17:34:56.423Z,18.66
2022-09-16T17:37:24.887Z,18.61
2022-09-16T17:39:53.152Z,18.69
2022-09-16T17:42:20.700Z,18.09
2022-09-16T17:44:48.555Z,17.66
2022-09-16T17:47:20.614Z,18.51
2022-09-16T17:49:52.973Z,17.94
2022-09-16T17:52:21.669Z,18.06
2022-09-16T17:54:53.060Z,18.25
2022-09-16T17:57:22.975Z,17.72
2022-09-16T17:59:52.952Z,18.30
2022-09-16T18:02:22.604Z,18.30
2022-09-16T18:05:08.904Z,17.84
2022-09-16T18:11:12.835Z,17.76
2022-09-16T18:13:44.240Z,17.47
2022-09-16T18:16:19.823Z,18.40
2022-09-16T18:18:55.145Z,18.29
2022-09-16T18:21:26.946Z,17.36
2022-09-16T18:23:57.287Z,17.58
2022-09-16T18:26:33.199Z,18.18
2022-09-16T18:29:10.064Z,18.41
2022-09-16T18:31:52.044Z,18.09
2022-09-16T18:34:24.969Z,17.71
2022-09-16T18:36:55.438Z,17.78
2022-09-16T18:39:27.479Z,17.85
2022-09-16T18:42:07.432Z,17.69
2022-09-16T18:44:37.226Z,17.81
2022-09-16T18:47:09.718Z,17.64
2022-09-16T18:49:47.138Z,18.22
2022-09-16T18:52:15.605Z,18.56
2022-09-16T18:54:53.365Z,18.57
2022-09-16T18:57:24.207Z,17.95
2022-09-16T19:00:00.464Z,17.54
2022-09-16T19:02:30.615Z,17.40
2022-09-16T19:05:03.460Z,17.58
2022-09-16T19:07:33.854Z,17.49
2022-09-16T19:10:03.638Z,17.51
2022-09-16T19:12:37.092Z,18.00
2022-09-16T19:15:08.604Z,18.18
2022-09-16T19:17:42.411Z,18.37
2022-09-16T19:20:15.887Z,18.90
2022-09-16T19:22:45.606Z,18.46
2022-09-16T19:25:21.042Z,18.50
2022-09-16T19:27:55.769Z,18.63
2022-09-16T19:30:38.588Z,18.83
2022-09-16T19:33:08.616Z,18.89
2022-09-16T19:35:38.167Z,19.06
2022-09-16T19:38:06.497Z,19.01
2022-09-16T19:40:42.503Z,19.07
2022-09-16T19:43:12.398Z,19.01
2022-09-16T19:45:43.260Z,18.64
2022-09-16T19:48:24.301Z,18.45
2022-09-16T19:51:33.192Z,18.57
2022-09-16T19:54:24.434Z,18.35
2022-09-16T19:57:08.028Z,17.61
2022-09-16T19:59:36.628Z,16.80
2022-09-16T20:02:09.857Z,16.89
2022-09-16T20:04:58.935Z,17.42
2022-09-16T20:07:28.440Z,17.12
2022-09-16T20:10:22.522Z,16.85
2022-09-16T20:12:57.327Z,17.02
2022-09-16T20:15:28.503Z,17.11
2022-09-16T20:18:04.945Z,17.10
2022-09-16T20:21:10.150Z,17.05
2022-09-16T20:24:15.822Z,17.12
2022-09-16T20:26:54.149Z,17.25
2022-09-16T20:29:22.426Z,17.79
2022-09-16T20:31:54.917Z,17.84
2022-09-16T20:34:29.649Z,17.20
2022-09-16T20:37:00.146Z,17.32
2022-09-16T20:39:56.787Z,17.65
2022-09-16T20:42:29.582Z,17.28
2022-09-16T20:45:01.926Z,17.48
2022-09-16T20:47:45.102Z,17.51
2022-09-16T20:50:17.532Z,17.05
2022-09-16T20:52:49.080Z,17.15
2022-09-16T20:55:20.610Z,17.74
2022-09-16T20:57:52.454Z,17.93
2022-09-16T21:00:34.846Z,17.82
2022-09-16T21:03:05.066Z,18.09
2022-09-16T21:05:32.740Z,18.24
2022-09-16T21:08:05.006Z,18.31
2022-09-16T21:10:48.033Z,17.90
2022-09-16T21:13:25.316Z,17.83
2022-09-16T21:15:57.932Z,18.25
2022-09-16T21:18:46.359Z,18.05
2022-09-16T21:21:19.890Z,17.84
2022-09-16T21:23:50.311Z,17.85
2022-09-16T21:26:26.762Z,18.03
2022-09-16T21:29:02.824Z,17.47
2022-09-16T21:31:56.532Z,17.35
2022-09-16T21:34:25.269Z,17.46
2022-09-16T21:36:53.877Z,17.21
2022-09-16T21:39:31.400Z,17.70
2022-09-16T21:42:09.542Z,17.43
2022-09-16T21:44:37.931Z,17.59
2022-09-16T21:47:11.649Z,17.42
2022-09-16T21:49:40.740Z,17.67
2022-09-16T21:52:34.724Z,17.79
2022-09-16T21:55:12.061Z,17.87
2022-09-16T21:58:01.694Z,18.23
2022-09-16T22:00:34.810Z,18.08
2022-09-16T22:03:05.873Z,17.99
2022-09-16T22:05:54.144Z,18.07
2022-09-16T22:08:22.908Z,18.23
2022-09-16T22:10:51.219Z,18.16
2022-09-16T22:13:22.082Z,17.69
2022-09-16T22:15:57.675Z,17.77
2022-09-16T22:18:32.903Z,17.52
2022-09-16T22:21:10.263Z,17.65
2022-09-16T22:23:43.135Z,17.34
2022-09-16T22:26:13.483Z,17.37
2022-09-16T22:28:42.474Z,17.22
2022-09-16T22:31:12.958Z,16.93
2022-09-16T22:33:47.387Z,17.09
2022-09-16T22:36:26.575Z,17.48
2022-09-16T22:39:01.634Z,17.14
2022-09-16T22:41:30.507Z,16.97
2022-09-16T22:43:59.006Z,17.33
2022-09-16T22:46:37.289Z,17.21
2022-09-16T22:49:09.506Z,17.29
2022-09-16T22:51:47.974Z,16.97
2022-09-16T22:54:20.101Z,17.22
2022-09-16T22:56:48.138Z,17.13
2022-09-16T22:59:18.878Z,16.78
2022-09-16T23:01:50.063Z,16.92
2022-09-16T23:04:18.355Z,17.18
2022-09-16T23:06:46.834Z,17.31
2022-09-16T23:09:20.624Z,17.21
2022-09-16T23:11:48.205Z,17.15
2022-09-16T23:14:22.080Z,17.55
2022-09-16T23:16:51.565Z,17.50
2022-09-16T23:19:20.471Z,16.81
2022-09-16T23:21:49.983Z,16.93
2022-09-16T23:24:20.323Z,17.50
2022-09-16T23:26:49.126Z,17.22
2022-09-16T23:29:18.516Z,17.42
2022-09-16T23:31:48.337Z,17.15
2022-09-16T23:34:19.700Z,17.23
2022-09-16T23:36:51.119Z,17.54
2022-09-16T23:39:19.025Z,17.11
2022-09-16T23:41:47.293Z,16.51
2022-09-16T23:44:19.620Z,16.69
2022-09-16T23:46:52.972Z,16.68
2022-09-16T23:49:27.520Z,15.87
2022-09-16T23:51:55.219Z,16.40
2022-09-16T23:54:23.711Z,16.77
2022-09-16T23:56:56.026Z,16.36
2022-09-16T23:59:24.210Z,16.57
